TimeMDT,TemperatureF,Dew PointF,Humidity,Sea Level PressureIn,VisibilityMPH,Wind Direction,Wind SpeedMPH,Gust SpeedMPH,PrecipitationIn,Events,Conditions,WindDirDegrees,DateUTC
12:10 AM,17.6,14.0,86,30.16,3.0,Calm,Calm,-,0.00,Snow,Light Snow,0,2013-04-18 06:10:00
12:53 AM,17.1,12.9,84,30.32,3.0,West,4.6,-,0.00,Snow,Light Snow,260,2013-04-18 06:53:00
1:53 AM,16.0,12.0,84,30.30,6.0,WNW,8.1,-,0.00,,Overcast,290,2013-04-18 07:53:00
2:53 AM,12.9,9.0,84,30.30,10.0,WSW,6.9,-,0.00,,Overcast,240,2013-04-18 08:53:00
3:53 AM,10.9,6.1,81,30.30,10.0,SW,5.8,-,N/A,,Overcast,230,2013-04-18 09:53:00
4:53 AM,10.9,5.0,77,30.30,10.0,WSW,8.1,-,N/A,,Overcast,240,2013-04-18 10:53:00
5:53 AM,5.0,-0.0,80,30.32,10.0,WSW,8.1,-,N/A,,Partly Cloudy,250,2013-04-18 11:53:00
6:53 AM,5.0,1.0,84,30.34,10.0,WSW,8.1,-,N/A,,Clear,250,2013-04-18 12:53:00
7:53 AM,10.9,5.0,77,30.33,10.0,WSW,8.1,-,N/A,,Clear,240,2013-04-18 13:53:00
8:53 AM,12.0,6.1,77,30.33,10.0,SW,8.1,-,N/A,,Clear,230,2013-04-18 14:53:00
9:53 AM,17.1,10.0,74,30.31,10.0,WSW,10.4,-,N/A,,Clear,240,2013-04-18 15:53:00
10:53 AM,19.9,12.9,74,30.29,10.0,WSW,10.4,-,N/A,,Clear,240,2013-04-18 16:53:00
11:53 AM,25.0,15.1,66,30.27,10.0,West,12.7,-,N/A,,Clear,280,2013-04-18 17:53:00
12:53 PM,27.0,15.1,61,30.27,10.0,West,13.8,-,N/A,,Clear,270,2013-04-18 18:53:00
1:53 PM,28.9,15.1,56,30.25,10.0,West,11.5,-,N/A,,Clear,270,2013-04-18 19:53:00
2:53 PM,30.9,16.0,54,30.25,10.0,West,10.4,-,N/A,,Clear,280,2013-04-18 20:53:00
3:53 PM,33.1,15.1,48,30.25,10.0,NW,10.4,-,N/A,,Clear,310,2013-04-18 21:53:00
4:53 PM,34.0,14.0,44,30.23,10.0,NW,3.5,-,N/A,,Clear,320,2013-04-18 22:53:00
5:53 PM,36.0,14.0,41,30.24,10.0,Calm,Calm,-,N/A,,Clear,0,2013-04-18 23:53:00
6:53 PM,30.0,18.0,61,30.27,10.0,SSW,3.5,-,N/A,,Clear,210,2013-04-19 00:53:00
7:53 PM,28.9,18.0,64,30.25,10.0,WSW,10.4,-,N/A,,Scattered Clouds,250,2013-04-19 01:53:00
8:53 PM,24.1,15.1,69,30.27,10.0,SW,8.1,-,N/A,,Clear,220,2013-04-19 02:53:00
9:53 PM,24.1,14.0,65,30.25,10.0,WSW,11.5,-,N/A,,Mostly Cloudy,240,2013-04-19 03:53:00
10:53 PM,24.1,12.9,62,30.23,10.0,WSW,13.8,-,N/A,,Partly Cloudy,240,2013-04-19 04:53:00
11:53 PM,26.1,12.9,58,30.19,10.0,SW,12.7,-,N/A,,Overcast,230,2013-04-19 05:53:00